SBI4119 UHHH-UHSS
Flight info
| Callsign | SBI4119 |
|---|---|
| Flight time | 0h 46m |
| Altitude | 33000 |
| Route | UHHH NEBES B150 MOGIS A969 KENOM UHSS |
| Aircraft | B738/M-SBDFGM3RWXY/LB1 |
Departure
| Time | 2026-05-05 19:07 |
|---|---|
| Airport | Khabarovsk Novy Airport (UHHH) |
Arrival
| Time | 2026-05-05 19:54 |
|---|---|
| Airport | Yuzhno-Sakhalinsk International Airport (UHSS) |
| Time | Latitude | Longitude | Altitude | Speed | Heading |
|---|---|---|---|---|---|
| 2026-05-05 18:20 | 48.52552 | 135.17265 | 253 ft | 0 kts | 312° |
| 2026-05-05 18:29 | 48.52551 | 135.17267 | 253 ft | 1 kts | 312° |
| 2026-05-05 18:29 | 48.52540 | 135.17282 | 253 ft | 2 kts | 328° |
| 2026-05-05 18:29 | 48.52527 | 135.17293 | 253 ft | 2 kts | 340° |
| 2026-05-05 18:29 | 48.52513 | 135.17299 | 253 ft | 2 kts | 353° |
| 2026-05-05 18:30 | 48.52498 | 135.17299 | 253 ft | 2 kts | 6° |
| 2026-05-05 18:30 | 48.52483 | 135.17294 | 253 ft | 2 kts | 20° |
| 2026-05-05 18:30 | 48.52470 | 135.17285 | 253 ft | 2 kts | 33° |
| 2026-05-05 18:30 | 48.52463 | 135.17278 | 253 ft | 1 kts | 41° |
| 2026-05-05 18:31 | 48.52459 | 135.17271 | 253 ft | 0 kts | 41° |
| 2026-05-05 18:31 | 48.52459 | 135.17273 | 253 ft | 0 kts | 41° |
| 2026-05-05 18:33 | 48.52460 | 135.17273 | 253 ft | 0 kts | 41° |
| 2026-05-05 18:33 | 48.52464 | 135.17278 | 253 ft | 0 kts | 43° |
| 2026-05-05 18:34 | 48.52467 | 135.17284 | 253 ft | 1 kts | 43° |
| 2026-05-05 18:34 | 48.52481 | 135.17305 | 253 ft | 4 kts | 52° |
| 2026-05-05 18:34 | 48.52502 | 135.17355 | 253 ft | 6 kts | 59° |
| 2026-05-05 18:34 | 48.52538 | 135.17416 | 253 ft | 8 kts | 42° |
| 2026-05-05 18:35 | 48.52587 | 135.17485 | 253 ft | 6 kts | 46° |
| 2026-05-05 18:35 | 48.52589 | 135.17488 | 253 ft | 0 kts | 46° |
| 2026-05-05 18:40 | 48.52592 | 135.17493 | 253 ft | 2 kts | 46° |
| 2026-05-05 18:40 | 48.52613 | 135.17522 | 253 ft | 5 kts | 41° |
| 2026-05-05 18:41 | 48.52649 | 135.17569 | 253 ft | 7 kts | 33° |
| 2026-05-05 18:41 | 48.52703 | 135.17561 | 253 ft | 9 kts | 322° |
| 2026-05-05 18:41 | 48.52757 | 135.17528 | 253 ft | 9 kts | 24° |
| 2026-05-05 18:41 | 48.52814 | 135.17596 | 253 ft | 11 kts | 41° |
| 2026-05-05 18:42 | 48.52880 | 135.17691 | 253 ft | 6 kts | 43° |
| 2026-05-05 18:42 | 48.52909 | 135.17735 | 253 ft | 5 kts | 47° |
| 2026-05-05 18:42 | 48.52922 | 135.17786 | 253 ft | 5 kts | 99° |
| 2026-05-05 18:42 | 48.52894 | 135.17851 | 253 ft | 8 kts | 131° |
| 2026-05-05 18:43 | 48.52848 | 135.17929 | 253 ft | 11 kts | 132° |
| 2026-05-05 18:43 | 48.52788 | 135.18022 | 253 ft | 13 kts | 131° |
| 2026-05-05 18:43 | 48.52809 | 135.18146 | 253 ft | 15 kts | 43° |
| 2026-05-05 18:43 | 48.52894 | 135.18262 | 253 ft | 17 kts | 41° |
| 2026-05-05 18:44 | 48.52988 | 135.18390 | 253 ft | 11 kts | 42° |
| 2026-05-05 18:44 | 48.53046 | 135.18475 | 253 ft | 10 kts | 59° |
| 2026-05-05 18:44 | 48.53023 | 135.18579 | 253 ft | 12 kts | 131° |
| 2026-05-05 18:44 | 48.53005 | 135.18610 | 253 ft | 0 kts | 131° |
| 2026-05-05 19:04 | 48.53001 | 135.18617 | 253 ft | 3 kts | 131° |
| 2026-05-05 19:04 | 48.52980 | 135.18654 | 253 ft | 6 kts | 130° |
| 2026-05-05 19:05 | 48.52947 | 135.18710 | 253 ft | 3 kts | 131° |
| 2026-05-05 19:05 | 48.52929 | 135.18735 | 253 ft | 1 kts | 186° |
| 2026-05-05 19:05 | 48.52907 | 135.18710 | 253 ft | 0 kts | 221° |
| 2026-05-05 19:06 | 48.52906 | 135.18710 | 253 ft | 1 kts | 221° |
| 2026-05-05 19:06 | 48.52847 | 135.18630 | 253 ft | 21 kts | 223° |
| 2026-05-05 19:06 | 48.52752 | 135.18498 | 253 ft | 22 kts | 223° |
| 2026-05-05 19:06 | 48.52497 | 135.18152 | 253 ft | 88 kts | 222° |
| 2026-05-05 19:07 | 48.51857 | 135.17279 | 255 ft | 157 kts | 222° |
| 2026-05-05 19:07 | 48.50950 | 135.16119 | 798 ft | 177 kts | 225° |
| 2026-05-05 19:07 | 48.50097 | 135.14894 | 1598 ft | 175 kts | 227° |
| 2026-05-05 19:07 | 48.49195 | 135.13599 | 2100 ft | 192 kts | 228° |
| 2026-05-05 19:08 | 48.48082 | 135.12065 | 1791 ft | 239 kts | 225° |
| 2026-05-05 19:08 | 48.46625 | 135.10521 | 1380 ft | 277 kts | 204° |
| 2026-05-05 19:08 | 48.44685 | 135.10318 | 2287 ft | 290 kts | 169° |
| 2026-05-05 19:08 | 48.42929 | 135.11696 | 3425 ft | 293 kts | 137° |
| 2026-05-05 19:09 | 48.41846 | 135.14217 | 4516 ft | 291 kts | 108° |
| 2026-05-05 19:09 | 48.41450 | 135.17169 | 5416 ft | 293 kts | 94° |
| 2026-05-05 19:09 | 48.41296 | 135.20209 | 6188 ft | 299 kts | 91° |
| 2026-05-05 19:09 | 48.41176 | 135.23352 | 7086 ft | 302 kts | 91° |
| 2026-05-05 19:10 | 48.41031 | 135.26506 | 7876 ft | 308 kts | 92° |
| 2026-05-05 19:10 | 48.40854 | 135.29678 | 8773 ft | 311 kts | 92° |
| 2026-05-05 19:10 | 48.40654 | 135.32948 | 9565 ft | 316 kts | 92° |
| 2026-05-05 19:10 | 48.40447 | 135.36235 | 10157 ft | 327 kts | 92° |
| 2026-05-05 19:11 | 48.40229 | 135.39729 | 10652 ft | 342 kts | 92° |
| 2026-05-05 19:11 | 48.40007 | 135.43343 | 11051 ft | 360 kts | 93° |
| 2026-05-05 19:11 | 48.39770 | 135.47200 | 11433 ft | 378 kts | 93° |
| 2026-05-05 19:11 | 48.39521 | 135.51199 | 11847 ft | 394 kts | 93° |
| 2026-05-05 19:12 | 48.39259 | 135.55339 | 12236 ft | 409 kts | 93° |
| 2026-05-05 19:12 | 48.38983 | 135.59642 | 12895 ft | 416 kts | 93° |
| 2026-05-05 19:12 | 48.38705 | 135.63947 | 13637 ft | 420 kts | 93° |
| 2026-05-05 19:12 | 48.38421 | 135.68361 | 14240 ft | 428 kts | 94° |
| 2026-05-05 19:13 | 48.38134 | 135.72797 | 14879 ft | 434 kts | 95° |
| 2026-05-05 19:13 | 48.37836 | 135.77374 | 15449 ft | 441 kts | 95° |
| 2026-05-05 19:13 | 48.37529 | 135.81987 | 15967 ft | 449 kts | 95° |
| 2026-05-05 19:13 | 48.37217 | 135.86641 | 16572 ft | 454 kts | 95° |
| 2026-05-05 19:14 | 48.36901 | 135.91380 | 17028 ft | 463 kts | 95° |
| 2026-05-05 19:14 | 48.36577 | 135.96248 | 17597 ft | 469 kts | 96° |
| 2026-05-05 19:14 | 48.36247 | 136.01111 | 18023 ft | 477 kts | 96° |
| 2026-05-05 19:14 | 48.35910 | 136.06070 | 18537 ft | 484 kts | 96° |
| 2026-05-05 19:15 | 48.35565 | 136.11171 | 19057 ft | 490 kts | 96° |
| 2026-05-05 19:15 | 48.35220 | 136.16225 | 19499 ft | 497 kts | 96° |
| 2026-05-05 19:15 | 48.34862 | 136.21396 | 20070 ft | 500 kts | 97° |
| 2026-05-05 19:15 | 48.34493 | 136.26668 | 20448 ft | 510 kts | 96° |
| 2026-05-05 19:16 | 48.34119 | 136.31963 | 20951 ft | 515 kts | 96° |
| 2026-05-05 19:16 | 48.33739 | 136.37314 | 21442 ft | 520 kts | 96° |
| 2026-05-05 19:16 | 48.33352 | 136.42719 | 21880 ft | 526 kts | 97° |
| 2026-05-05 19:16 | 48.32954 | 136.48218 | 22269 ft | 533 kts | 96° |
| 2026-05-05 19:17 | 48.32550 | 136.53717 | 22790 ft | 536 kts | 97° |
| 2026-05-05 19:17 | 48.32152 | 136.59270 | 23166 ft | 543 kts | 97° |
| 2026-05-05 19:17 | 48.31756 | 136.64891 | 23569 ft | 548 kts | 96° |
| 2026-05-05 19:17 | 48.31340 | 136.70634 | 24037 ft | 552 kts | 97° |
| 2026-05-05 19:18 | 48.30929 | 136.76315 | 24542 ft | 555 kts | 98° |
| 2026-05-05 19:18 | 48.30412 | 136.82089 | 25046 ft | 557 kts | 101° |
| 2026-05-05 19:18 | 48.29723 | 136.87807 | 25467 ft | 561 kts | 104° |
| 2026-05-05 19:18 | 48.28901 | 136.93463 | 26027 ft | 561 kts | 105° |
| 2026-05-05 19:19 | 48.27991 | 136.99200 | 26458 ft | 564 kts | 108° |
| 2026-05-05 19:19 | 48.27064 | 137.04875 | 26898 ft | 568 kts | 107° |
| 2026-05-05 19:19 | 48.26131 | 137.10606 | 27480 ft | 567 kts | 106° |
| 2026-05-05 19:19 | 48.25209 | 137.16383 | 27862 ft | 571 kts | 106° |
| 2026-05-05 19:20 | 48.24301 | 137.22133 | 28690 ft | 565 kts | 107° |
| 2026-05-05 19:20 | 48.23418 | 137.27824 | 29377 ft | 562 kts | 105° |
| 2026-05-05 19:20 | 48.22553 | 137.33478 | 29875 ft | 563 kts | 105° |
| 2026-05-05 19:20 | 48.21671 | 137.39269 | 30265 ft | 565 kts | 106° |
| 2026-05-05 19:21 | 48.20792 | 137.45055 | 30789 ft | 565 kts | 105° |
| 2026-05-05 19:21 | 48.19920 | 137.50797 | 31478 ft | 558 kts | 106° |
| 2026-05-05 19:21 | 48.19064 | 137.56430 | 32361 ft | 548 kts | 105° |
| 2026-05-05 19:21 | 48.18187 | 137.62207 | 32436 ft | 554 kts | 105° |
| 2026-05-05 19:22 | 48.16460 | 137.73444 | 32440 ft | 546 kts | 107° |
| 2026-05-05 19:22 | 48.14751 | 137.84558 | 32438 ft | 542 kts | 105° |
| 2026-05-05 19:23 | 48.13047 | 137.95596 | 32440 ft | 547 kts | 105° |
| 2026-05-05 19:23 | 48.11290 | 138.06645 | 32769 ft | 552 kts | 106° |
| 2026-05-05 19:24 | 48.10421 | 138.12152 | 33528 ft | 542 kts | 105° |
| 2026-05-05 19:24 | 48.09573 | 138.17601 | 34187 ft | 534 kts | 106° |
| 2026-05-05 19:24 | 48.08731 | 138.23007 | 34548 ft | 531 kts | 106° |
| 2026-05-05 19:24 | 48.07861 | 138.28389 | 34630 ft | 535 kts | 107° |
| 2026-05-05 19:25 | 48.05896 | 138.39183 | 34611 ft | 534 kts | 102° |
| 2026-05-05 19:25 | 48.05721 | 138.44670 | 34619 ft | 535 kts | 84° |
| 2026-05-05 19:25 | 48.06241 | 138.50192 | 34620 ft | 536 kts | 83° |
| 2026-05-05 19:26 | 48.06334 | 138.55789 | 34596 ft | 535 kts | 96° |
| 2026-05-05 19:26 | 48.05806 | 138.61331 | 34612 ft | 534 kts | 103° |
| 2026-05-05 19:26 | 48.04042 | 138.72082 | 34589 ft | 530 kts | 113° |
| 2026-05-05 19:27 | 48.00979 | 138.81908 | 34594 ft | 518 kts | 125° |
| 2026-05-05 19:27 | 47.97446 | 138.91203 | 34606 ft | 518 kts | 126° |
| 2026-05-05 19:28 | 47.93914 | 139.00453 | 34613 ft | 514 kts | 126° |
| 2026-05-05 19:28 | 47.91467 | 139.10567 | 34609 ft | 537 kts | 96° |
| 2026-05-05 19:29 | 47.91635 | 139.16104 | 34635 ft | 540 kts | 83° |
| 2026-05-05 19:29 | 47.91840 | 139.21674 | 34611 ft | 539 kts | 94° |
| 2026-05-05 19:29 | 47.90581 | 139.32632 | 34628 ft | 537 kts | 107° |
| 2026-05-05 19:30 | 47.88740 | 139.43365 | 34629 ft | 538 kts | 108° |
| 2026-05-05 19:30 | 47.86850 | 139.54152 | 34632 ft | 538 kts | 108° |
| 2026-05-05 19:31 | 47.84974 | 139.64934 | 34638 ft | 542 kts | 108° |
| 2026-05-05 19:31 | 47.82986 | 139.75780 | 34645 ft | 542 kts | 111° |
| 2026-05-05 19:32 | 47.80727 | 139.86400 | 34650 ft | 545 kts | 113° |
| 2026-05-05 19:32 | 47.78431 | 139.97086 | 34648 ft | 541 kts | 112° |
| 2026-05-05 19:33 | 47.76127 | 140.07759 | 34651 ft | 546 kts | 112° |
| 2026-05-05 19:33 | 47.73774 | 140.18454 | 34644 ft | 547 kts | 112° |
| 2026-05-05 19:34 | 47.71406 | 140.29117 | 34636 ft | 548 kts | 112° |
| 2026-05-05 19:35 | 47.67845 | 140.45229 | 34641 ft | 549 kts | 111° |
| 2026-05-05 19:35 | 47.65460 | 140.55946 | 34640 ft | 548 kts | 112° |
| 2026-05-05 19:36 | 47.63060 | 140.66641 | 34646 ft | 550 kts | 113° |
| 2026-05-05 19:36 | 47.60675 | 140.77367 | 34502 ft | 544 kts | 113° |
| 2026-05-05 19:36 | 47.59502 | 140.82680 | 33913 ft | 542 kts | 112° |
| 2026-05-05 19:37 | 47.58361 | 140.87981 | 33034 ft | 546 kts | 112° |
| 2026-05-05 19:37 | 47.57246 | 140.93362 | 32044 ft | 551 kts | 111° |
| 2026-05-05 19:37 | 47.56132 | 140.98801 | 30984 ft | 557 kts | 111° |
| 2026-05-05 19:37 | 47.55014 | 141.04271 | 29861 ft | 562 kts | 110° |
| 2026-05-05 19:38 | 47.53868 | 141.09801 | 28676 ft | 568 kts | 110° |
| 2026-05-05 19:38 | 47.52705 | 141.15338 | 27446 ft | 574 kts | 110° |
| 2026-05-05 19:38 | 47.51492 | 141.21004 | 26236 ft | 578 kts | 111° |
| 2026-05-05 19:38 | 47.50276 | 141.26592 | 25423 ft | 573 kts | 111° |
| 2026-05-05 19:39 | 47.49051 | 141.32173 | 24607 ft | 569 kts | 110° |
| 2026-05-05 19:39 | 47.47838 | 141.37665 | 23757 ft | 567 kts | 110° |
| 2026-05-05 19:39 | 47.46633 | 141.43176 | 22900 ft | 565 kts | 109° |
| 2026-05-05 19:39 | 47.45462 | 141.48746 | 21987 ft | 564 kts | 108° |
| 2026-05-05 19:40 | 47.44333 | 141.54198 | 21060 ft | 554 kts | 108° |
| 2026-05-05 19:40 | 47.43235 | 141.59488 | 20156 ft | 543 kts | 108° |
| 2026-05-05 19:40 | 47.42130 | 141.64780 | 19249 ft | 532 kts | 108° |
| 2026-05-05 19:40 | 47.41068 | 141.69869 | 18371 ft | 521 kts | 109° |
| 2026-05-05 19:41 | 47.40006 | 141.74948 | 17489 ft | 510 kts | 109° |
| 2026-05-05 19:41 | 47.39036 | 141.79890 | 16597 ft | 500 kts | 107° |
| 2026-05-05 19:41 | 47.38161 | 141.84734 | 15743 ft | 489 kts | 106° |
| 2026-05-05 19:41 | 47.37339 | 141.89513 | 14869 ft | 478 kts | 106° |
| 2026-05-05 19:42 | 47.36544 | 141.94231 | 14050 ft | 466 kts | 105° |
| 2026-05-05 19:42 | 47.35753 | 141.98772 | 13207 ft | 454 kts | 106° |
| 2026-05-05 19:42 | 47.34936 | 142.03166 | 12440 ft | 442 kts | 107° |
| 2026-05-05 19:42 | 47.34116 | 142.07449 | 11654 ft | 431 kts | 107° |
| 2026-05-05 19:43 | 47.33300 | 142.11627 | 10933 ft | 419 kts | 107° |
| 2026-05-05 19:43 | 47.32507 | 142.15665 | 10486 ft | 400 kts | 107° |
| 2026-05-05 19:43 | 47.31762 | 142.19437 | 10323 ft | 377 kts | 107° |
| 2026-05-05 19:43 | 47.31000 | 142.23032 | 10175 ft | 355 kts | 109° |
| 2026-05-05 19:44 | 47.30247 | 142.26375 | 10011 ft | 337 kts | 109° |
| 2026-05-05 19:44 | 47.29514 | 142.29567 | 9850 ft | 320 kts | 109° |
| 2026-05-05 19:44 | 47.28818 | 142.32585 | 9552 ft | 311 kts | 110° |
| 2026-05-05 19:44 | 47.28129 | 142.35564 | 9121 ft | 307 kts | 110° |
| 2026-05-05 19:45 | 47.27457 | 142.38492 | 8745 ft | 301 kts | 110° |
| 2026-05-05 19:45 | 47.26804 | 142.41377 | 8422 ft | 296 kts | 109° |
| 2026-05-05 19:45 | 47.26146 | 142.44273 | 7972 ft | 300 kts | 110° |
| 2026-05-05 19:45 | 47.25485 | 142.47171 | 7623 ft | 298 kts | 110° |
| 2026-05-05 19:46 | 47.24827 | 142.50063 | 7219 ft | 300 kts | 110° |
| 2026-05-05 19:46 | 47.24173 | 142.52956 | 6868 ft | 299 kts | 110° |
| 2026-05-05 19:46 | 47.23527 | 142.55838 | 6613 ft | 295 kts | 110° |
| 2026-05-05 19:46 | 47.22882 | 142.58679 | 6164 ft | 298 kts | 114° |
| 2026-05-05 19:47 | 47.21973 | 142.61401 | 5720 ft | 298 kts | 124° |
| 2026-05-05 19:47 | 47.20897 | 142.64014 | 5337 ft | 297 kts | 125° |
| 2026-05-05 19:47 | 47.19852 | 142.66603 | 5095 ft | 291 kts | 126° |
| 2026-05-05 19:47 | 47.18721 | 142.68942 | 5214 ft | 272 kts | 135° |
| 2026-05-05 19:48 | 47.17378 | 142.70769 | 5202 ft | 256 kts | 160° |
| 2026-05-05 19:48 | 47.15773 | 142.71513 | 5005 ft | 232 kts | 185° |
| 2026-05-05 19:48 | 47.14225 | 142.71675 | 4909 ft | 217 kts | 188° |
| 2026-05-05 19:48 | 47.12750 | 142.71845 | 4760 ft | 209 kts | 186° |
| 2026-05-05 19:49 | 47.11298 | 142.72069 | 4359 ft | 213 kts | 185° |
| 2026-05-05 19:49 | 47.09821 | 142.72244 | 3918 ft | 214 kts | 190° |
| 2026-05-05 19:49 | 47.08376 | 142.72246 | 3714 ft | 200 kts | 193° |
| 2026-05-05 19:49 | 47.07035 | 142.72211 | 3541 ft | 188 kts | 194° |
| 2026-05-05 19:50 | 47.05751 | 142.72182 | 3249 ft | 179 kts | 194° |
| 2026-05-05 19:50 | 47.04554 | 142.72162 | 3006 ft | 166 kts | 194° |
| 2026-05-05 19:50 | 47.03429 | 142.72127 | 2781 ft | 159 kts | 195° |
| 2026-05-05 19:50 | 47.02314 | 142.72078 | 2585 ft | 161 kts | 193° |
| 2026-05-05 19:51 | 47.01207 | 142.72047 | 2359 ft | 161 kts | 192° |
| 2026-05-05 19:51 | 47.00123 | 142.72020 | 2075 ft | 150 kts | 189° |
| 2026-05-05 19:51 | 46.99112 | 142.72000 | 1901 ft | 143 kts | 190° |
| 2026-05-05 19:51 | 46.98107 | 142.71971 | 1713 ft | 148 kts | 188° |
| 2026-05-05 19:52 | 46.97076 | 142.71947 | 1484 ft | 146 kts | 186° |
| 2026-05-05 19:52 | 46.96064 | 142.71925 | 1297 ft | 146 kts | 186° |
| 2026-05-05 19:52 | 46.95049 | 142.71896 | 1090 ft | 146 kts | 185° |
| 2026-05-05 19:52 | 46.94041 | 142.71860 | 890 ft | 144 kts | 185° |
| 2026-05-05 19:53 | 46.93038 | 142.71866 | 693 ft | 145 kts | 182° |
| 2026-05-05 19:53 | 46.92038 | 142.71825 | 489 ft | 144 kts | 184° |
| 2026-05-05 19:53 | 46.91032 | 142.71779 | 261 ft | 144 kts | 179° |
| 2026-05-05 19:53 | 46.90039 | 142.71776 | 70 ft | 137 kts | 179° |
| 2026-05-05 19:54 | 46.89217 | 142.71762 | 64 ft | 93 kts | 181° |
| 2026-05-05 19:54 | 46.88763 | 142.71751 | 64 ft | 34 kts | 182° |
| 2026-05-05 19:54 | 46.88701 | 142.71786 | 64 ft | 2 kts | 91° |
| 2026-05-05 19:54 | 46.88699 | 142.71832 | 64 ft | 6 kts | 93° |
| 2026-05-05 19:55 | 46.88697 | 142.71916 | 64 ft | 10 kts | 92° |
| 2026-05-05 19:55 | 46.88696 | 142.71988 | 65 ft | 7 kts | 91° |
| 2026-05-05 19:55 | 46.88699 | 142.72064 | 65 ft | 0 kts | 64° |
| 2026-05-05 19:55 | 46.88710 | 142.72082 | 65 ft | 4 kts | 40° |
| 2026-05-05 19:56 | 46.88750 | 142.72098 | 65 ft | 7 kts | 9° |
| 2026-05-05 19:56 | 46.88785 | 142.72166 | 65 ft | 10 kts | 92° |
| 2026-05-05 19:56 | 46.88783 | 142.72220 | 65 ft | 4 kts | 92° |
| 2026-05-05 19:56 | 46.88783 | 142.72235 | 65 ft | 0 kts | 91° |